Language selection

My Weather Profile Weather Topics  | 

Hudson - Hudson Bay: Past 24 Hour Conditions

 

Arviat Airport

07:00 PM CST 28 January 2022
Disclaimer

This table is a summary of hourly weather conditions for the past 24 hours.
Please note that these observations might not always be representative of weather conditions over their associated marine area.

Date / Time
(CST)
Wind(knots) Conditions Visibility(km) Pressure(kPa) Air tempC) Relative humidity(%) Dew pointC) Wind Chill
28 January 2022
19:00 NW 17 Mainly Clear 16 101.5 -28 72 -31 -43
18:00 WNW 16 gust 21 Haze 10 101.6 -27 72 -30 -41
17:00 NW 17 Ice Crystals 24 101.6 -27 74 -30 -42
16:00 WNW 17 Ice Crystals 24 101.6 -27 72 -31 -42
15:00 NW 15 Ice Crystals 24 101.6 -27 72 -30 -41
14:00 NW 10 Ice Crystals 24 101.6 -27 71 -31 -39
13:00 NW 14 Ice Crystals 24 101.7 -27 70 -31 -41
12:00 NW 17 Ice Crystals 24 101.7 -28 71 -31 -43
11:00 NW 16 Ice Crystals 24 101.7 -29 70 -32 -43
10:00 NW 13 Ice Crystals 24 101.7 -28 73 -32 -42
9:00 NNW 15 Ice Crystals 24 101.7 -30 72 -33 -45
8:00 NW 15 Ice Crystals 24 101.8 -30 72 -33 -45
7:00 NW 17 Ice Crystals 24 101.8 -31 71 -34 -47
6:00 NW 20 Haze 8 101.8 -30 71 -34 -47
5:00 NW 18 Haze 3 101.8 -31 71 -34 -47
4:00 NNW 19 Haze 8 101.7 -31 71 -34 -48
3:00 NW 21 gust 26 Light Snow 2 101.7 -30 72 -33 -47
2:00 NNW 18 Haze 3 101.7 -32 71 -35 -48
1:00 NNW 17 Haze 2 101.6 -31 71 -34 -47
0:00 NNW 22 gust 28 Blowing Snow 2 101.5 -30 71 -33 -47
27 January 2022
23:00 NNW 19 Haze 4 101.5 -31 71 -35 -48
22:00 NW 17 Clear 13 101.5 -30 71 -34 -46
21:00 NNW 18 gust 23 Haze 4 101.5 -30 70 -34 -46
20:00 NNW 20 Light Snow 2 101.5 -30 72 -34 -47
19:00 NW 17 Clear 16 101.5 -29 70 -33 -45

Zoom-in to make a selection

Map of Hudson - Hudson Bay marine weather areas Arviat Airport Baker Lake Airport Chesterfield Inlet Airport Coral Harbour Airport Rankin Inlet Airport Sanikiluaq Airport Whale Cove Airport Kinngait (Cape Dorset Airport) Iqaluit Airport Wager Bay Kimmirut Airport Churchill Airport Fort Severn Airport Peawanuck Airport Moosonee Airport Eastmain Airport La Grande Rivière Airport Waskaganish Airport Wemindji Airport Akulivik Airport Inukjuak Airport Ivujivik Airport Kuujjuarapik Airport Puvirnituq Airport Umiujaq Airport Aupaluk Airport Kangiqsujuaq Airport Kangirsuk Airport Kangiqsualujjuaq Airport Kuujjuaq Airport Quaqtaq Airport Salluit Airport Tasiujaq Airport Cape Kakkiviak
Legend:
buoy Buoy
land station Land Station

Hudson - Hudson Bay Area

Another Region

What we are doing

Features

Hello Weather

Hello Weather: our upgraded telephone weather service is here. 1-833-794-3556 or 1-833-79HELLO.

Date modified: